Time;durP1;ratioP1;P1;durP2;ratioP2;P2;SDS_P1;SDS_P2;PMS_P1;PMS_P2;Temp;Humidity;BMP_temperature;BMP_pressure;BME280_temperature;BME280_humidity;BME280_pressure;Samples;Min_cycle;Max_cycle;Signal;HPM_P1;HPM_P2
2021/07/12 00:07:24;;;;;;;;;;;;;;;18.32;73.85;99518.45;532905;1088;102093;-68
2021/07/12 00:17:29;;;;;;;;;;;;;;;18.50;73.73;99507.01;528948;1089;102739;-68
2021/07/12 00:27:35;;;;;;;;;;;;;;;18.56;73.56;99498.41;531796;1088;102347;-68
2021/07/12 00:37:40;;;;;;;;;;;;;;;18.67;73.75;99504.48;527841;1089;102746;-68
2021/07/12 00:47:45;;;;;;;;;;;;;;;18.80;73.26;99507.58;532993;1090;101726;-68
2021/07/12 00:57:50;;;;;;;;;;;;;;;18.71;73.81;99501.36;532847;1088;102557;-68
2021/07/12 01:07:54;;;;;;;;;;;;;;;18.79;73.84;99494.45;532890;1090;102133;-68
2021/07/12 01:18:03;;;;;;;;;;;;;;;18.68;74.10;99475.09;532299;1089;102746;-67
2021/07/12 01:28:27;;;;;;;;;;;;;;;18.56;74.53;99463.02;529000;1089;102019;-68
2021/07/12 01:38:40;;;;;;;;;;;;;;;18.39;74.70;99454.89;530506;1090;102590;-68
2021/07/12 01:48:51;;;;;;;;;;;;;;;18.43;74.80;99453.62;532216;1088;102099;-68
2021/07/12 01:59:02;;;;;;;;;;;;;;;18.36;74.84;99438.44;532822;1089;103671;-68
2021/07/12 02:09:08;;;;;;;;;;;;;;;18.29;74.95;99443.50;532253;1090;103135;-67
2021/07/12 02:19:14;;;;;;;;;;;;;;;18.24;74.79;99440.48;532908;1090;102524;-68
2021/07/12 02:29:19;;;;;;;;;;;;;;;18.25;75.01;99428.86;532899;1089;103025;-68
2021/07/12 02:39:25;;;;;;;;;;;;;;;18.24;75.04;99417.41;532271;1089;103898;-67
2021/07/12 02:49:30;;;;;;;;;;;;;;;18.21;75.21;99412.38;532892;1088;102769;-68
2021/07/12 02:59:35;;;;;;;;;;;;;;;18.23;75.23;99401.61;532965;1089;102361;-68
2021/07/12 03:09:42;;;;;;;;;;;;;;;18.74;75.58;99399.98;532245;1089;102530;-68
2021/07/12 03:19:47;;;;;;;;;;;;;;;20.49;73.63;99389.89;532937;1089;102236;-68
2021/07/12 03:29:52;;;;;;;;;;;;;;;21.24;70.46;99398.62;532254;1089;102259;-67
2021/07/12 03:39:58;;;;;;;;;;;;;;;21.03;69.99;99405.35;532902;1088;102206;-67
2021/07/12 03:50:05;;;;;;;;;;;;;;;21.17;69.83;99400.30;532958;1089;102176;-68
2021/07/12 04:00:11;;;;;;;;;;;;;;;21.19;69.77;99395.62;532200;1089;102851;-68
2021/07/12 04:10:17;;;;;;;;;;;;;;;24.33;67.77;99390.90;532898;1089;102816;-68
2021/07/12 04:20:22;;;;;;;;;;;;;;;28.29;59.60;99391.38;532879;1089;103245;-68
2021/07/12 04:30:27;;;;;;;;;;;;;;;30.73;54.01;99387.26;532222;1088;102778;-68
2021/07/12 04:40:31;;;;;;;;;;;;;;;32.95;47.32;99398.57;532839;1089;102610;-69
2021/07/12 04:50:36;;;;;;;;;;;;;;;32.05;44.24;99393.11;532837;1089;101936;-67
2021/07/12 05:00:41;;;;;;;;;;;;;;;30.65;45.37;99401.16;532275;1089;103258;-68
2021/07/12 05:10:46;;;;;;;;;;;;;;;32.24;44.73;99404.55;532811;1089;104006;-68
2021/07/12 05:20:52;;;;;;;;;;;;;;;30.49;45.05;99408.91;532307;1088;102853;-68
2021/07/12 05:30:56;;;;;;;;;;;;;;;30.22;45.94;99405.81;532942;1090;102662;-67
2021/07/12 05:41:01;;;;;;;;;;;;;;;32.45;43.93;99407.63;532811;1089;102585;-68
2021/07/12 05:51:06;;;;;;;;;;;;;;;35.74;40.77;99392.81;532180;1088;102297;-68
2021/07/12 06:01:16;;;;;;;;;;;;;;;33.52;41.10;99385.67;531890;1088;102934;-69
2021/07/12 06:11:21;;;;;;;;;;;;;;;30.61;42.54;99379.94;532756;1089;102179;-68
2021/07/12 06:21:26;;;;;;;;;;;;;;;29.16;45.95;99384.30;532146;1089;103078;-69
2021/07/12 06:31:32;;;;;;;;;;;;;;;31.87;44.19;99375.99;532881;1089;103235;-65
2021/07/12 06:41:36;;;;;;;;;;;;;;;32.96;42.95;99385.81;532881;1089;102799;-63
2021/07/12 06:51:42;;;;;;;;;;;;;;;32.90;42.42;99381.34;532144;1090;102970;-64
2021/07/12 07:01:48;;;;;;;;;;;;;;;31.57;43.03;99387.89;532965;1089;102739;-64
2021/07/12 07:11:54;;;;;;;;;;;;;;;29.98;45.52;99386.78;531375;1088;103283;-61
2021/07/12 07:21:59;;;;;;;;;;;;;;;33.02;45.15;99392.14;532944;1088;101774;-60
2021/07/12 07:32:04;;;;;;;;;;;;;;;35.03;39.95;99392.28;532898;1088;102254;-70
2021/07/12 07:42:16;;;;;;;;;;;;;;;38.58;37.79;99384.55;532252;1089;102794;-66
2021/07/12 07:52:21;;;;;;;;;;;;;;;35.68;36.80;99385.73;532932;1090;102468;-66
2021/07/12 08:02:26;;;;;;;;;;;;;;;33.45;39.62;99387.78;515423;1088;102894;-67
2021/07/12 08:12:31;;;;;;;;;;;;;;;33.90;40.24;99383.05;532127;1088;103797;-64
2021/07/12 08:22:36;;;;;;;;;;;;;;;34.59;39.88;99380.63;532921;1089;102803;-65
2021/07/12 08:32:41;;;;;;;;;;;;;;;34.80;39.06;99369.81;532915;1089;103549;-65
2021/07/12 08:42:46;;;;;;;;;;;;;;;34.94;38.52;99378.34;514282;1089;10001410;-65
2021/07/12 08:52:51;;;;;;;;;;;;;;;33.90;39.00;99385.77;532804;1090;103193;-67
2021/07/12 09:02:56;;;;;;;;;;;;;;;33.76;39.90;99384.55;532167;1089;101779;-67
2021/07/12 09:13:01;;;;;;;;;;;;;;;34.02;38.91;99382.92;532829;1088;103047;-67
2021/07/12 09:33:50;;;;;;;;;;;;;;;33.36;39.72;99367.52;531743;1091;62618;-67
2021/07/12 09:44:10;;;;;;;;;;;;;;;33.99;38.99;99374.44;530209;1092;101583;-67
2021/07/12 09:54:22;;;;;;;;;;;;;;;34.29;38.12;99353.98;522791;1089;102549;-66
2021/07/12 10:04:27;;;;;;;;;;;;;;;32.81;37.94;99337.47;531308;1089;103794;-66
2021/07/12 10:14:32;;;;;;;;;;;;;;;32.03;40.25;99339.03;531296;1088;102198;-64
2021/07/12 10:24:39;;;;;;;;;;;;;;;32.28;40.64;99332.38;530626;1090;102499;-63
2021/07/12 10:34:45;;;;;;;;;;;;;;;32.51;40.26;99319.70;531353;1089;102050;-65
2021/07/12 10:45:10;;;;;;;;;;;;;;;32.83;38.79;99340.75;530700;1090;102922;-65
2021/07/12 10:55:27;;;;;;;;;;;;;;;31.89;39.48;99324.99;531371;1090;102070;-67
2021/07/12 11:05:49;;;;;;;;;;;;;;;32.12;39.82;99323.18;531398;1088;102229;-64
2021/07/12 11:16:13;;;;;;;;;;;;;;;31.33;40.67;99339.17;531287;1090;102442;-64
2021/07/12 11:26:37;;;;;;;;;;;;;;;31.91;40.99;99324.72;531367;1089;101893;-66
2021/07/12 11:36:47;;;;;;;;;;;;;;;32.06;41.16;99305.15;530693;1089;102032;-64
2021/07/12 11:47:15;;;;;;;;;;;;;;;31.73;40.65;99269.60;531337;1089;102272;-65
2021/07/12 11:57:20;;;;;;;;;;;;;;;31.83;40.75;99223.66;530699;1090;102189;-64
2021/07/12 12:07:29;;;;;;;;;;;;;;;31.90;39.82;99228.08;531341;1090;102444;-63
2021/07/12 12:17:38;;;;;;;;;;;;;;;31.42;39.50;99279.92;531340;1089;101566;-63
2021/07/12 12:27:43;;;;;;;;;;;;;;;31.02;40.27;99298.70;530705;1089;102428;-63
2021/07/12 12:37:48;;;;;;;;;;;;;;;30.40;41.36;99280.31;531343;1090;103687;-63
2021/07/12 12:47:53;;;;;;;;;;;;;;;29.48;42.47;99267.02;530715;1088;101785;-66
2021/07/12 12:58:07;;;;;;;;;;;;;;;29.12;43.06;99247.13;531381;1089;103179;-72
2021/07/12 13:08:12;;;;;;;;;;;;;;;29.44;43.99;99250.45;531369;1090;101298;-64
2021/07/12 13:18:17;;;;;;;;;;;;;;;29.70;42.87;99247.55;530648;1088;103036;-60
2021/07/12 13:28:21;;;;;;;;;;;;;;;29.18;44.82;99255.14;531360;1090;101454;-69
2021/07/12 13:38:26;;;;;;;;;;;;;;;29.32;44.80;99234.16;531337;1090;102402;-68
2021/07/12 13:48:31;;;;;;;;;;;;;;;29.39;44.35;99244.88;530729;1089;103063;-66
2021/07/12 13:58:36;;;;;;;;;;;;;;;29.34;45.11;99236.64;531345;1089;102884;-67
2021/07/12 14:08:46;;;;;;;;;;;;;;;29.12;45.04;99230.91;531375;1088;103311;-62
2021/07/12 14:18:52;;;;;;;;;;;;;;;29.20;45.43;99247.66;531384;1089;102223;-62
2021/07/12 14:28:57;;;;;;;;;;;;;;;29.24;46.08;99234.48;531428;1090;101708;-62
2021/07/12 14:39:02;;;;;;;;;;;;;;;28.97;45.83;99232.16;530745;1088;103137;-62
2021/07/12 14:49:07;;;;;;;;;;;;;;;28.86;45.36;99217.56;531444;1090;102750;-61
2021/07/12 14:59:15;;;;;;;;;;;;;;;28.87;44.51;99221.07;531415;1090;102624;-63
2021/07/12 15:09:20;;;;;;;;;;;;;;;28.64;44.69;99222.57;530782;1089;103694;-62
2021/07/12 15:19:24;;;;;;;;;;;;;;;28.40;43.83;99233.23;531383;1089;102413;-62
2021/07/12 15:29:29;;;;;;;;;;;;;;;28.22;43.45;99234.89;531421;1089;102181;-63
2021/07/12 15:39:37;;;;;;;;;;;;;;;27.89;44.18;99254.88;530798;1089;102563;-61
2021/07/12 15:49:48;;;;;;;;;;;;;;;27.20;45.18;99238.55;531413;1090;102900;-62
2021/07/12 15:59:53;;;;;;;;;;;;;;;26.64;45.86;99252.43;530768;1089;101953;-62
2021/07/12 16:10:00;;;;;;;;;;;;;;;25.97;46.27;99239.08;531353;1090;102848;-62
2021/07/12 16:20:06;;;;;;;;;;;;;;;25.46;47.31;99230.57;531371;1089;101426;-63
2021/07/12 16:30:12;;;;;;;;;;;;;;;25.15;48.41;99216.68;530654;1089;102252;-62
2021/07/12 16:40:18;;;;;;;;;;;;;;;24.71;49.19;99207.21;531403;1089;102622;-62
2021/07/12 16:50:23;;;;;;;;;;;;;;;24.64;49.79;99209.88;531305;1089;103075;-62
2021/07/12 17:00:29;;;;;;;;;;;;;;;24.34;49.54;99161.84;503855;1089;10001295;-62
2021/07/12 17:10:34;;;;;;;;;;;;;;;24.42;49.38;99201.11;531257;1089;102862;-62
2021/07/12 17:20:39;;;;;;;;;;;;;;;24.34;47.97;99235.11;531280;1090;102356;-62
2021/07/12 17:30:44;;;;;;;;;;;;;;;24.29;47.53;99271.61;530705;1089;101893;-62
2021/07/12 17:40:49;;;;;;;;;;;;;;;24.32;47.14;99258.63;531247;1091;102695;-62
2021/07/12 17:50:54;;;;;;;;;;;;;;;23.99;46.86;99251.15;530726;1088;103631;-62
2021/07/12 18:01:00;;;;;;;;;;;;;;;23.96;47.05;99251.55;531275;1090;103023;-62
2021/07/12 18:11:05;;;;;;;;;;;;;;;23.84;47.32;99245.88;531262;1090;102408;-62
2021/07/12 18:21:12;;;;;;;;;;;;;;;23.62;47.50;99264.64;530560;1092;102801;-61
2021/07/12 18:31:17;;;;;;;;;;;;;;;23.15;47.72;99250.77;531203;1092;103566;-62
2021/07/12 18:41:22;;;;;;;;;;;;;;;22.80;48.47;99247.89;531203;1090;102805;-61
2021/07/12 18:51:27;;;;;;;;;;;;;;;22.32;48.00;99234.86;530544;1092;103520;-61
2021/07/12 19:01:32;;;;;;;;;;;;;;;21.81;48.91;99261.23;531211;1091;102601;-61
2021/07/12 19:11:37;;;;;;;;;;;;;;;21.26;49.71;99271.93;531262;1091;103400;-62
2021/07/12 19:21:42;;;;;;;;;;;;;;;20.86;50.86;99277.30;530649;1090;101675;-62
2021/07/12 19:31:48;;;;;;;;;;;;;;;20.52;52.28;99288.23;531285;1091;102734;-62
2021/07/12 19:41:54;;;;;;;;;;;;;;;20.28;53.64;99297.95;530637;1091;102089;-62
2021/07/12 19:51:59;;;;;;;;;;;;;;;20.09;55.14;99310.61;531306;1090;102416;-63
2021/07/12 20:02:04;;;;;;;;;;;;;;;19.76;56.66;99323.08;531187;1090;102110;-61
2021/07/12 20:12:11;;;;;;;;;;;;;;;19.48;57.52;99297.56;530640;1090;102533;-60
2021/07/12 20:22:16;;;;;;;;;;;;;;;19.26;58.65;99289.20;520266;1090;102533;-60
2021/07/12 20:32:21;;;;;;;;;;;;;;;19.11;60.49;99310.27;531226;1093;102118;-60
2021/07/12 20:42:26;;;;;;;;;;;;;;;19.26;60.99;99297.17;530645;1092;103440;-60
2021/07/12 20:52:31;;;;;;;;;;;;;;;19.37;60.55;99285.38;531200;1091;102556;-61
2021/07/12 21:02:36;;;;;;;;;;;;;;;19.45;60.74;99297.90;531138;1093;102722;-61
2021/07/12 21:12:42;;;;;;;;;;;;;;;19.37;61.15;99265.93;530533;1092;102511;-62
2021/07/12 21:22:46;;;;;;;;;;;;;;;19.25;61.49;99268.90;524765;1092;102030;-61
2021/07/12 21:32:51;;;;;;;;;;;;;;;19.03;61.93;99249.88;526029;1091;102843;-59
2021/07/12 21:42:57;;;;;;;;;;;;;;;18.84;62.64;99215.53;525839;1092;103783;-60
2021/07/12 21:53:02;;;;;;;;;;;;;;;18.66;63.41;99181.06;531205;1092;102660;-60
2021/07/12 22:03:07;;;;;;;;;;;;;;;18.56;64.16;99191.84;530580;1090;104668;-60
2021/07/12 22:13:11;;;;;;;;;;;;;;;18.32;64.93;99217.31;528952;1090;103304;-67
2021/07/12 22:23:18;;;;;;;;;;;;;;;18.17;65.36;99235.66;524781;1090;102345;-66
2021/07/12 22:44:29;;;;;;;;;;;;;;;18.17;66.43;99262.23;531200;1092;102362;-70
2021/07/12 22:54:34;;;;;;;;;;;;;;;18.32;66.53;99247.37;530608;1090;102068;-70
2021/07/12 23:04:39;;;;;;;;;;;;;;;18.53;66.62;99235.52;531318;1090;104562;-70
2021/07/12 23:14:43;;;;;;;;;;;;;;;18.51;66.33;99231.34;530774;1091;102335;-70
2021/07/12 23:24:48;;;;;;;;;;;;;;;18.44;66.66;99237.31;530649;1090;102528;-70
2021/07/12 23:34:53;;;;;;;;;;;;;;;18.39;66.70;99246.75;527660;1090;101969;-69
2021/07/12 23:44:58;;;;;;;;;;;;;;;18.28;66.97;99210.63;530718;1091;102499;-71
2021/07/12 23:55:03;;;;;;;;;;;;;;;18.40;66.76;99190.76;531379;1090;102192;-70
